KSHV/SHV METAR and TAF weather

Enter ICAO airport designator
Station Type Date Time Source
KSHV METAR 2020/08/05 23:56 UTC NOAA

KSHV 052356Z 09004KT 10SM FEW025 BKN160 BKN280 26/23 A2997 RMK AO2 RAB09E20 SLP146 P0000 60002 T02610228 10278 20239 55005


Station Type Date Time Source
KSHV Decoded METAR 2020/08/05 23:56 UTC NOAA

SHREVEPORT REGIONAL AIRPORT, LA, United States (KSHV) 32-27N 93-50W 80M
Aug 05, 2020 - 07:56 PM EDT / 2020.08.05 2356 UTC
Wind: from the E (090 degrees) at 5 MPH (4 KT):0
Visibility: 10 mile(s):0
Sky conditions: mostly cloudy
Precipitation last hour: A trace
Temperature: 79.0 F (26.1 C)
Dew Point: 73.0 F (22.8 C)
Relative Humidity: 82%
Pressure (altimeter): 29.97 in. Hg (1014 hPa)
Pressure tendency: 0.01 inches (0.5 hPa) lower than three hours ago
ob: KSHV 052356Z 09004KT 10SM FEW025 BKN160 BKN280 26/23 A2997 RMK AO2 RAB09E20 SLP146 P0000 60002 T02610228 10278 20239 55005
cycle: 0

Station Type Date Time Source
KSHV TAF 2020/08/05 20:54 UTC NOAA

TAF
AMD KSHV 051952Z 0520/0618 VRB05KT P6SM FEW025 OVC100
FM060000 06005KT P6SM SCT050 BKN100
FM061500 12005KT P6SM BKN150

Example: see airport list